CMA CGM Kingfish — A8YW9 — position and weather

sailwx.info

Track history (hours):
 
Tides and Currents Weather Stations Pressure Air Temp Water Temp Dewpoint Dewpoint Depression Visibility Wind Speed Wind Dir Waves Ship Positions

CMA CGM Kingfish

Last reported at 2016-Feb-01 12:33 UTC. Time now 2016-Feb-10 20:04 UTC.
Position N 29°55' E 122°52'.
Warning: this ship's position is 9 days out of date.

Length 294 m; draft 11.4 m.

Type: Ship (hazmat cat A). MMSI: 636015147.

Date/timePositionNaut miles runAvg speedWind from/ knotsBaromVisibWave heightAir tempDewpointWater temp
2016-Feb-01 12:33N 29°55' E 122°52'1918.7
2016-Feb-01 11:32N 29°47' E 122°32'1414.6
2016-Feb-01 10:33N 29°47' E 122°15'1010.0
2016-Feb-01 09:32N 29°48' E 122°04'3 0.3
2016-Feb-01 00:19N 29°46' E 122°00'3 4.1
2016-Jan-31 23:33N 29°47' E 122°04'10 9.7
2016-Jan-31 22:33N 29°48' E 122°15'8 7.9
2016-Jan-31 21:31N 29°45' E 122°24'9 8.9
2016-Jan-31 20:33N 29°48' E 122°33'8 7.5
2016-Jan-31 19:31N 29°51' E 122°41'6 6.5
2016-Jan-31 18:31N 29°54' E 122°48'39 6.1
2016-Jan-31 12:06N 30°30' E 122°32'4 7.7
2016-Jan-31 11:32N 30°31' E 122°27'8 8.2
2016-Jan-31 10:34N 30°33' E 122°18'12 1.4
2016-Jan-31 02:22N 30°36' E 122°05'6 6.3
2016-Jan-31 01:28N 30°34' E 122°11'9 9.4
2016-Jan-31 00:32N 30°33' E 122°21'21 1.6
2016-Jan-30 11:07N 30°28' E 122°45'  
2016-Jan-27 23:33N 22°17' E 114°06'1 0.0
2016-Jan-26 22:33N 22°18' E 114°06'9 4.0
2016-Jan-26 20:26N 22°10' E 114°09'0 0.1
2016-Jan-26 19:08N 22°10' E 114°10'0 0.1
2016-Jan-26 18:11N 22°10' E 114°10'0 0.1
2016-Jan-26 17:32N 22°10' E 114°10'10 5.0
2016-Jan-26 15:33N 22°20' E 114°07'0 0.2
2016-Jan-26 14:33N 22°20' E 114°08'0 0.0
2016-Jan-26 13:27N 22°20' E 114°08'0 0.0
2016-Jan-26 12:27N 22°20' E 114°08'0 0.0
2016-Jan-26 11:12N 22°20' E 114°08'0 0.0
2016-Jan-26 10:33N 22°20' E 114°08'0 0.0
2016-Jan-26 09:33N 22°20' E 114°08'0 0.0
2016-Jan-26 08:33N 22°20' E 114°08'0 0.0
2016-Jan-26 07:33N 22°20' E 114°08'0 0.0
2016-Jan-26 06:33N 22°20' E 114°08'0 0.0
2016-Jan-26 05:33N 22°20' E 114°08'0 0.0
2016-Jan-26 04:33N 22°20' E 114°08'16 7.5
2016-Jan-26 02:28N 22°08' E 114°18'247 9.5
2016-Jan-25 00:32N 23°51' E 118°22'1513.6
2016-Jan-24 23:24N 24°00' E 118°35'3913.3
2016-Jan-24 20:28N 24°24' E 119°09'  
Track history (hours):
 
Tides and Currents Weather Stations Pressure Air Temp Water Temp Dewpoint Dewpoint Depression Visibility Wind Speed Wind Dir Waves Ship Positions

CMA CGM Kingfish

Last reported at 2016-Feb-01 12:33 UTC. Time now 2016-Feb-10 20:04 UTC.
Position N 29°55' E 122°52'.
Warning: this ship's position is 9 days out of date.

Length 294 m; draft 11.4 m.

Type: Ship (hazmat cat A). MMSI: 636015147.

Date/timePositionNaut miles runAvg speedWind from/ knotsBaromVisibWave heightAir tempDewpointWater temp
2016-Feb-01 12:33N 29°55' E 122°52'1918.7
2016-Feb-01 11:32N 29°47' E 122°32'1414.6
2016-Feb-01 10:33N 29°47' E 122°15'1010.0
2016-Feb-01 09:32N 29°48' E 122°04'3 0.3
2016-Feb-01 00:19N 29°46' E 122°00'3 4.1
2016-Jan-31 23:33N 29°47' E 122°04'10 9.7
2016-Jan-31 22:33N 29°48' E 122°15'8 7.9
2016-Jan-31 21:31N 29°45' E 122°24'9 8.9
2016-Jan-31 20:33N 29°48' E 122°33'8 7.5
2016-Jan-31 19:31N 29°51' E 122°41'6 6.5
2016-Jan-31 18:31N 29°54' E 122°48'39 6.1
2016-Jan-31 12:06N 30°30' E 122°32'4 7.7
2016-Jan-31 11:32N 30°31' E 122°27'8 8.2
2016-Jan-31 10:34N 30°33' E 122°18'12 1.4
2016-Jan-31 02:22N 30°36' E 122°05'6 6.3
2016-Jan-31 01:28N 30°34' E 122°11'9 9.4
2016-Jan-31 00:32N 30°33' E 122°21'21 1.6
2016-Jan-30 11:07N 30°28' E 122°45'  
2016-Jan-27 23:33N 22°17' E 114°06'1 0.0
2016-Jan-26 22:33N 22°18' E 114°06'9 4.0
2016-Jan-26 20:26N 22°10' E 114°09'0 0.1
2016-Jan-26 19:08N 22°10' E 114°10'0 0.1
2016-Jan-26 18:11N 22°10' E 114°10'0 0.1
2016-Jan-26 17:32N 22°10' E 114°10'10 5.0
2016-Jan-26 15:33N 22°20' E 114°07'0 0.2
2016-Jan-26 14:33N 22°20' E 114°08'0 0.0
2016-Jan-26 13:27N 22°20' E 114°08'0 0.0
2016-Jan-26 12:27N 22°20' E 114°08'0 0.0
2016-Jan-26 11:12N 22°20' E 114°08'0 0.0
2016-Jan-26 10:33N 22°20' E 114°08'0 0.0
2016-Jan-26 09:33N 22°20' E 114°08'0 0.0
2016-Jan-26 08:33N 22°20' E 114°08'0 0.0
2016-Jan-26 07:33N 22°20' E 114°08'0 0.0
2016-Jan-26 06:33N 22°20' E 114°08'0 0.0
2016-Jan-26 05:33N 22°20' E 114°08'0 0.0
2016-Jan-26 04:33N 22°20' E 114°08'16 7.5
2016-Jan-26 02:28N 22°08' E 114°18'247 9.5
2016-Jan-25 00:32N 23°51' E 118°22'1513.6
2016-Jan-24 23:24N 24°00' E 118°35'3913.3
2016-Jan-24 20:28N 24°24' E 119°09'  

Dump ship's entire track history